Time;durP1;ratioP1;P1;durP2;ratioP2;P2;SDS_P1;SDS_P2;PMS_P1;PMS_P2;Temp;Humidity;BMP_temperature;BMP_pressure;BME280_temperature;BME280_humidity;BME280_pressure;Samples;Min_cycle;Max_cycle;Signal;HPM_P1;HPM_P2
2023/09/30 00:00:00;;;;;;;9.95;3.20;;;;;;;;;;4946769;28;92836;-82
2023/09/30 00:02:36;;;;;;;10.18;2.80;;;;;;;;;;4948920;28;92545;-82
2023/09/30 00:05:03;;;;;;;12.25;3.47;;;;;;;;;;4948335;28;95512;-81
2023/09/30 00:07:31;;;;;;;9.13;3.00;;;;;;;;;;4947781;28;95709;-82
2023/09/30 00:09:57;;;;;;;9.90;3.20;;;;;;;;;;4952406;28;93191;-82
2023/09/30 00:12:24;;;;;;;14.23;3.05;;;;;;;;;;4949536;28;94510;-81
2023/09/30 00:14:51;;;;;;;13.35;3.33;;;;;;;;;;4950238;28;93036;-81
2023/09/30 00:17:17;;;;;;;10.15;2.75;;;;;;;;;;4964290;28;92851;-82
2023/09/30 00:19:44;;;;;;;11.52;3.47;;;;;;;;;;4951932;28;93204;-81
2023/09/30 00:22:11;;;;;;;10.90;3.22;;;;;;;;;;4948565;28;92564;-81
2023/09/30 00:24:38;;;;;;;9.73;2.70;;;;;;;;;;4949091;28;93249;-81
2023/09/30 00:27:04;;;;;;;8.73;2.90;;;;;;;;;;4966499;28;94610;-81
2023/09/30 00:29:31;;;;;;;10.90;3.38;;;;;;;;;;4950402;28;92504;-81
2023/09/30 00:31:58;;;;;;;8.40;2.83;;;;;;;;;;4959583;28;94709;-81
2023/09/30 00:34:24;;;;;;;10.43;3.10;;;;;;;;;;4952171;28;92999;-82
2023/09/30 00:36:51;;;;;;;11.68;3.50;;;;;;;;;;4954556;28;92572;-82
2023/09/30 00:39:18;;;;;;;8.68;2.90;;;;;;;;;;4968556;28;92496;-82
2023/09/30 00:41:44;;;;;;;10.93;2.95;;;;;;;;;;4945585;28;92624;-81
2023/09/30 00:44:11;;;;;;;8.63;3.03;;;;;;;;;;4954865;28;94527;-81
2023/09/30 00:46:40;;;;;;;11.02;2.80;;;;;;;;;;4962939;28;93081;-81
2023/09/30 00:49:07;;;;;;;10.63;3.45;;;;;;;;;;4981795;28;91819;-82
2023/09/30 00:51:34;;;;;;;8.65;3.17;;;;;;;;;;4964462;28;92370;-82
2023/09/30 00:54:01;;;;;;;10.60;3.17;;;;;;;;;;4958648;28;93082;-81
2023/09/30 00:56:29;;;;;;;11.13;3.80;;;;;;;;;;4959233;28;94924;-83
2023/09/30 00:58:57;;;;;;;12.27;3.70;;;;;;;;;;4963141;28;94585;-82
2023/09/30 01:01:24;;;;;;;11.60;4.10;;;;;;;;;;4965726;28;93162;-82
2023/09/30 01:03:51;;;;;;;10.70;3.35;;;;;;;;;;4964020;28;92682;-81
2023/09/30 01:06:18;;;;;;;9.02;3.50;;;;;;;;;;4961463;28;95650;-81
2023/09/30 01:08:45;;;;;;;13.20;4.10;;;;;;;;;;4963922;28;92909;-82
2023/09/30 01:11:12;;;;;;;10.85;4.35;;;;;;;;;;4959230;28;94797;-82
2023/09/30 01:13:39;;;;;;;9.18;3.33;;;;;;;;;;4959317;28;91680;-82
2023/09/30 01:16:06;;;;;;;9.93;2.92;;;;;;;;;;4954937;28;92517;-82
2023/09/30 01:18:32;;;;;;;10.05;3.42;;;;;;;;;;4943571;28;93579;-82
2023/09/30 01:21:03;;;;;;;11.55;3.65;;;;;;;;;;4945533;28;96815;-82
2023/09/30 01:23:30;;;;;;;13.65;4.68;;;;;;;;;;4952049;28;94772;-82
2023/09/30 01:25:58;;;;;;;11.13;3.63;;;;;;;;;;4948633;28;93161;-82
2023/09/30 01:28:26;;;;;;;10.57;3.17;;;;;;;;;;4943100;28;92630;-82
2023/09/30 01:30:53;;;;;;;13.70;4.22;;;;;;;;;;4947805;28;95728;-83
2023/09/30 01:33:19;;;;;;;9.95;3.90;;;;;;;;;;4950539;28;93230;-82
2023/09/30 01:35:46;;;;;;;9.50;3.40;;;;;;;;;;4960893;28;93003;-82
2023/09/30 01:38:12;;;;;;;9.25;3.40;;;;;;;;;;4940556;28;94126;-83
2023/09/30 01:40:39;;;;;;;10.13;3.47;;;;;;;;;;4959269;28;100165;-82
2023/09/30 01:43:06;;;;;;;9.95;2.90;;;;;;;;;;4954130;28;92445;-82
2023/09/30 01:45:32;;;;;;;11.48;3.50;;;;;;;;;;4963018;28;95863;-81
2023/09/30 01:47:59;;;;;;;9.48;3.40;;;;;;;;;;4956236;28;92497;-82
2023/09/30 01:50:25;;;;;;;9.77;3.33;;;;;;;;;;4948497;28;93962;-82
2023/09/30 01:52:52;;;;;;;10.25;3.50;;;;;;;;;;4957381;28;93243;-81
2023/09/30 01:55:19;;;;;;;9.57;3.25;;;;;;;;;;4951305;28;92515;-81
2023/09/30 01:57:45;;;;;;;8.45;2.75;;;;;;;;;;4951856;28;93392;-80
2023/09/30 02:00:12;;;;;;;10.63;3.33;;;;;;;;;;4948734;28;95708;-80
2023/09/30 02:02:41;;;;;;;10.75;3.30;;;;;;;;;;4949092;28;91888;-80
2023/09/30 02:05:08;;;;;;;10.30;2.67;;;;;;;;;;4952141;28;92397;-81
2023/09/30 02:07:35;;;;;;;8.32;2.85;;;;;;;;;;4954886;28;93142;-80
2023/09/30 02:10:02;;;;;;;10.60;3.38;;;;;;;;;;4949952;28;95206;-80
2023/09/30 02:12:29;;;;;;;10.02;3.22;;;;;;;;;;4951597;28;93651;-80
2023/09/30 02:14:56;;;;;;;9.80;3.00;;;;;;;;;;4966089;28;92584;-80
2023/09/30 02:17:23;;;;;;;10.43;3.25;;;;;;;;;;4949962;28;94454;-80
2023/09/30 02:19:49;;;;;;;10.55;4.00;;;;;;;;;;4950663;28;93702;-80
2023/09/30 02:22:16;;;;;;;11.45;3.72;;;;;;;;;;4966228;28;92673;-80
2023/09/30 02:24:43;;;;;;;9.60;3.60;;;;;;;;;;4951676;28;93133;-80
2023/09/30 02:27:09;;;;;;;9.52;3.50;;;;;;;;;;4966789;28;95442;-81
2023/09/30 02:29:36;;;;;;;11.10;4.03;;;;;;;;;;4954365;28;92502;-80
2023/09/30 02:32:02;;;;;;;8.93;3.58;;;;;;;;;;4965542;28;96327;-80
2023/09/30 02:34:30;;;;;;;12.23;4.05;;;;;;;;;;4932513;28;95169;-81
2023/09/30 02:36:56;;;;;;;;;;;;;;;;;;4967229;28;95904;-81
2023/09/30 02:39:23;;;;;;;9.45;3.47;;;;;;;;;;4954119;28;114755;-81
2023/09/30 02:41:52;;;;;;;12.18;3.65;;;;;;;;;;4930146;28;92998;-80
2023/09/30 02:44:19;;;;;;;10.75;3.92;;;;;;;;;;4941616;28;93864;-81
2023/09/30 02:46:45;;;;;;;10.90;4.93;;;;;;;;;;4946050;28;96136;-81
2023/09/30 02:49:12;;;;;;;10.10;4.00;;;;;;;;;;4942655;28;93422;-81
2023/09/30 02:51:39;;;;;;;10.07;4.25;;;;;;;;;;4947055;28;92401;-81
2023/09/30 02:54:05;;;;;;;9.73;3.78;;;;;;;;;;4953599;28;92505;-81
2023/09/30 02:56:32;;;;;;;9.98;4.05;;;;;;;;;;4938934;28;93440;-81
2023/09/30 02:59:00;;;;;;;11.40;4.80;;;;;;;;;;4948881;28;96121;-82
2023/09/30 03:01:26;;;;;;;9.00;3.65;;;;;;;;;;4949088;28;92547;-82
2023/09/30 03:03:53;;;;;;;10.77;4.40;;;;;;;;;;4962874;28;92651;-82
2023/09/30 03:06:20;;;;;;;11.10;4.55;;;;;;;;;;4945862;28;96616;-82
2023/09/30 03:08:46;;;;;;;10.90;4.55;;;;;;;;;;4949847;28;92474;-82
2023/09/30 03:11:13;;;;;;;9.25;3.50;;;;;;;;;;4953638;28;93405;-82
2023/09/30 03:13:42;;;;;;;11.02;4.65;;;;;;;;;;4951282;28;92470;-82
2023/09/30 03:16:09;;;;;;;11.10;4.43;;;;;;;;;;4947359;28;92893;-82
2023/09/30 03:18:35;;;;;;;9.25;4.30;;;;;;;;;;4931368;28;93065;-82
2023/09/30 03:21:13;;;;;;;11.05;4.80;;;;;;;;;;4931280;28;92435;-82
2023/09/30 03:23:40;;;;;;;10.50;4.25;;;;;;;;;;4917434;28;95976;-82
2023/09/30 03:26:09;;;;;;;10.57;4.70;;;;;;;;;;4930572;28;92935;-82
2023/09/30 03:28:37;;;;;;;12.68;5.50;;;;;;;;;;4928782;28;92575;-82
2023/09/30 03:31:04;;;;;;;11.70;5.15;;;;;;;;;;4927871;28;94028;-82
2023/09/30 03:33:32;;;;;;;9.63;3.83;;;;;;;;;;4941651;28;93557;-82
2023/09/30 03:35:59;;;;;;;12.15;5.28;;;;;;;;;;4948413;28;92781;-82
2023/09/30 03:38:26;;;;;;;12.13;4.45;;;;;;;;;;4950603;28;95378;-82
2023/09/30 03:40:54;;;;;;;12.68;5.20;;;;;;;;;;4972033;28;92162;-82
2023/09/30 03:43:21;;;;;;;11.68;5.25;;;;;;;;;;4940897;28;92535;-82
2023/09/30 03:45:47;;;;;;;12.35;4.38;;;;;;;;;;4945387;28;93122;-81
2023/09/30 03:48:14;;;;;;;12.35;5.15;;;;;;;;;;4946982;28;98505;-81
2023/09/30 03:50:41;;;;;;;10.93;4.63;;;;;;;;;;4950697;28;95479;-81
2023/09/30 03:53:07;;;;;;;13.30;5.93;;;;;;;;;;4945947;28;94836;-82
2023/09/30 03:55:34;;;;;;;11.07;4.43;;;;;;;;;;4945179;28;92450;-81
2023/09/30 03:58:02;;;;;;;13.15;4.20;;;;;;;;;;4948651;28;94900;-81
2023/09/30 04:00:29;;;;;;;10.57;4.10;;;;;;;;;;4964739;28;93102;-82
2023/09/30 04:02:58;;;;;;;11.95;5.00;;;;;;;;;;4950411;28;92680;-82
2023/09/30 04:05:29;;;;;;;11.63;4.72;;;;;;;;;;4965572;28;95216;-82
2023/09/30 04:07:56;;;;;;;12.13;4.10;;;;;;;;;;4949831;28;93021;-83
2023/09/30 04:10:22;;;;;;;10.98;3.97;;;;;;;;;;4962512;28;92934;-82
2023/09/30 04:12:49;;;;;;;11.60;4.90;;;;;;;;;;4936137;28;97112;-83
2023/09/30 04:15:16;;;;;;;11.00;4.30;;;;;;;;;;4948594;28;92880;-82
2023/09/30 04:17:42;;;;;;;10.88;4.13;;;;;;;;;;4941316;28;92898;-83
2023/09/30 04:20:10;;;;;;;9.82;4.25;;;;;;;;;;4949093;28;92423;-83
2023/09/30 04:22:37;;;;;;;10.73;5.13;;;;;;;;;;4951041;28;93060;-83
2023/09/30 04:25:12;;;;;;;12.48;5.60;;;;;;;;;;4935248;28;96503;-82
2023/09/30 04:27:38;;;;;;;11.77;5.32;;;;;;;;;;4947980;28;92501;-82
2023/09/30 04:30:11;;;;;;;11.20;4.68;;;;;;;;;;4946382;28;92951;-83
2023/09/30 04:32:38;;;;;;;12.15;5.15;;;;;;;;;;4953620;28;94047;-82
2023/09/30 04:35:05;;;;;;;11.07;4.50;;;;;;;;;;4954116;28;93127;-83
2023/09/30 04:37:32;;;;;;;13.63;6.05;;;;;;;;;;4952239;28;94970;-82
2023/09/30 04:39:58;;;;;;;12.88;5.68;;;;;;;;;;4954685;28;92409;-83
2023/09/30 04:42:25;;;;;;;12.35;6.05;;;;;;;;;;4952447;28;92931;-81
2023/09/30 04:44:52;;;;;;;11.15;5.55;;;;;;;;;;4934767;28;92646;-81
2023/09/30 04:47:19;;;;;;;11.65;4.80;;;;;;;;;;4926484;28;93001;-82
2023/09/30 04:49:45;;;;;;;11.93;5.43;;;;;;;;;;4917214;28;92903;-81
2023/09/30 04:52:12;;;;;;;12.07;4.95;;;;;;;;;;4930194;28;93189;-82
2023/09/30 04:54:39;;;;;;;11.23;5.40;;;;;;;;;;4918854;28;91771;-82
2023/09/30 04:57:07;;;;;;;11.95;4.43;;;;;;;;;;4942002;28;92518;-82
2023/09/30 04:59:34;;;;;;;13.27;5.82;;;;;;;;;;4952364;28;93169;-82
2023/09/30 05:02:00;;;;;;;10.27;4.53;;;;;;;;;;4948201;28;95560;-81
2023/09/30 05:04:27;;;;;;;11.18;5.40;;;;;;;;;;4947355;28;94744;-81
2023/09/30 05:06:53;;;;;;;12.55;4.97;;;;;;;;;;4948369;28;92583;-81
2023/09/30 05:09:20;;;;;;;12.60;4.93;;;;;;;;;;4949697;28;92879;-81
2023/09/30 05:11:47;;;;;;;11.60;5.07;;;;;;;;;;4948472;28;92627;-81
2023/09/30 05:14:13;;;;;;;16.30;7.80;;;;;;;;;;4950901;28;92614;-81
2023/09/30 05:16:43;;;;;;;13.90;6.30;;;;;;;;;;4948937;28;92539;-81
2023/09/30 05:19:10;;;;;;;13.43;5.38;;;;;;;;;;4947899;28;92500;-82
2023/09/30 05:21:36;;;;;;;12.43;4.97;;;;;;;;;;4955654;28;92928;-81
2023/09/30 05:24:05;;;;;;;10.80;4.07;;;;;;;;;;4951547;28;93143;-81
2023/09/30 05:26:32;;;;;;;11.73;4.93;;;;;;;;;;4950807;28;94879;-81
2023/09/30 05:28:59;;;;;;;10.82;4.55;;;;;;;;;;4944800;28;95223;-81
2023/09/30 05:31:27;;;;;;;10.70;4.70;;;;;;;;;;4952686;28;93160;-81
2023/09/30 05:33:56;;;;;;;11.85;4.75;;;;;;;;;;4950589;28;93355;-81
2023/09/30 05:36:24;;;;;;;12.95;5.30;;;;;;;;;;4952452;28;92685;-82
2023/09/30 05:38:50;;;;;;;;;;;;;;;;;;4953345;28;93340;-81
2023/09/30 05:41:17;;;;;;;12.02;5.57;;;;;;;;;;4954214;28;92512;-81
2023/09/30 05:43:44;;;;;;;12.35;5.80;;;;;;;;;;4955417;28;95797;-81
2023/09/30 05:46:11;;;;;;;11.93;6.10;;;;;;;;;;4967492;28;92474;-81
2023/09/30 05:48:38;;;;;;;14.15;6.00;;;;;;;;;;4952570;28;93424;-81
2023/09/30 05:51:15;;;;;;;14.98;6.35;;;;;;;;;;4951620;28;95597;-81
2023/09/30 05:53:41;;;;;;;10.07;4.45;;;;;;;;;;4943843;28;92523;-81
2023/09/30 05:56:11;;;;;;;12.65;6.13;;;;;;;;;;4935667;28;93597;-81
2023/09/30 05:58:38;;;;;;;12.85;5.55;;;;;;;;;;4931893;28;93825;-80
2023/09/30 06:01:18;;;;;;;14.38;6.20;;;;;;;;;;4932018;28;100535;-81
2023/09/30 06:03:46;;;;;;;12.50;6.13;;;;;;;;;;4930206;28;93195;-80
2023/09/30 06:06:15;;;;;;;12.65;6.20;;;;;;;;;;4934971;28;93032;-81
2023/09/30 06:08:45;;;;;;;12.82;5.97;;;;;;;;;;4932872;28;92725;-81
2023/09/30 06:11:19;;;;;;;13.35;5.70;;;;;;;;;;4932466;28;92948;-81
2023/09/30 06:13:48;;;;;;;12.70;6.43;;;;;;;;;;4932788;28;92905;-80
2023/09/30 06:16:26;;;;;;;15.32;6.95;;;;;;;;;;4935704;28;95142;-81
2023/09/30 06:18:53;;;;;;;13.07;6.60;;;;;;;;;;4932356;28;94130;-81
2023/09/30 06:21:20;;;;;;;13.73;6.22;;;;;;;;;;4932403;28;92669;-81
2023/09/30 06:23:48;;;;;;;12.50;6.82;;;;;;;;;;4930573;28;92811;-81
2023/09/30 06:26:17;;;;;;;;;;;;;;;;;;4932997;28;94084;-81
2023/09/30 06:28:45;;;;;;;15.55;5.78;;;;;;;;;;4930319;28;112076;-81
2023/09/30 06:31:11;;;;;;;12.25;5.57;;;;;;;;;;4934649;28;94008;-82
2023/09/30 06:33:39;;;;;;;12.00;5.20;;;;;;;;;;4933373;28;91757;-82
2023/09/30 06:36:10;;;;;;;13.43;6.45;;;;;;;;;;4925145;28;93192;-81
2023/09/30 06:38:37;;;;;;;17.08;6.88;;;;;;;;;;4923409;28;93077;-82
2023/09/30 06:41:05;;;;;;;13.68;5.80;;;;;;;;;;4930277;28;95368;-81
2023/09/30 06:43:33;;;;;;;12.30;4.70;;;;;;;;;;4922046;28;95854;-82
2023/09/30 06:46:00;;;;;;;13.02;6.15;;;;;;;;;;4928089;28;93483;-81
2023/09/30 06:48:27;;;;;;;12.95;6.65;;;;;;;;;;4930654;28;92842;-81
2023/09/30 06:50:54;;;;;;;11.07;4.82;;;;;;;;;;4933001;28;93210;-82
2023/09/30 06:53:23;;;;;;;13.35;6.00;;;;;;;;;;4936989;28;92594;-82
2023/09/30 06:55:51;;;;;;;12.35;5.95;;;;;;;;;;4932824;28;93014;-82
2023/09/30 06:58:21;;;;;;;12.82;5.63;;;;;;;;;;4931964;28;92612;-82
2023/09/30 07:00:49;;;;;;;12.88;5.30;;;;;;;;;;4933137;28;92444;-82
2023/09/30 07:03:16;;;;;;;12.18;5.60;;;;;;;;;;4930610;28;95966;-82
2023/09/30 07:05:43;;;;;;;;;;;;;;;;;;4930260;28;95534;-82
2023/09/30 07:08:09;;;;;;;17.15;7.90;;;;;;;;;;4947319;28;96283;-81
2023/09/30 07:10:36;;;;;;;13.07;4.82;;;;;;;;;;4935018;28;93784;-80
2023/09/30 07:13:03;;;;;;;13.45;5.85;;;;;;;;;;4931648;28;92876;-82
2023/09/30 07:15:30;;;;;;;12.63;5.43;;;;;;;;;;4927799;28;92976;-81
2023/09/30 07:17:56;;;;;;;15.63;6.90;;;;;;;;;;4930316;28;92999;-81
2023/09/30 07:20:23;;;;;;;15.23;7.28;;;;;;;;;;4930681;28;92531;-81
2023/09/30 07:22:50;;;;;;;14.30;7.43;;;;;;;;;;4939528;28;91825;-81
2023/09/30 07:25:36;;;;;;;16.88;8.30;;;;;;;;;;4951857;28;93713;-81
2023/09/30 07:28:03;;;;;;;17.83;7.97;;;;;;;;;;4949872;28;92856;-81
2023/09/30 07:30:30;;;;;;;17.02;8.45;;;;;;;;;;4931192;28;95415;-82
2023/09/30 07:32:57;;;;;;;15.85;6.03;;;;;;;;;;4954676;28;93294;-82
2023/09/30 07:35:23;;;;;;;17.45;6.95;;;;;;;;;;4943295;28;92878;-82
2023/09/30 07:37:52;;;;;;;14.25;6.80;;;;;;;;;;4950347;28;93363;-82
2023/09/30 07:40:21;;;;;;;15.02;6.40;;;;;;;;;;4964403;28;93078;-82
2023/09/30 07:42:47;;;;;;;17.55;7.80;;;;;;;;;;4949968;28;94077;-81
2023/09/30 07:45:16;;;;;;;14.05;6.40;;;;;;;;;;4936992;28;95614;-82
2023/09/30 07:47:44;;;;;;;13.13;6.88;;;;;;;;;;4949862;28;92045;-80
2023/09/30 07:50:12;;;;;;;13.40;5.65;;;;;;;;;;4949126;28;96405;-80
2023/09/30 07:52:42;;;;;;;17.33;7.80;;;;;;;;;;4963508;28;95085;-82
2023/09/30 07:55:09;;;;;;;13.23;6.35;;;;;;;;;;4941207;28;94797;-81
2023/09/30 07:57:36;;;;;;;14.35;6.05;;;;;;;;;;4935870;28;92862;-81
2023/09/30 08:00:08;;;;;;;14.00;7.20;;;;;;;;;;4964506;28;92861;-80
2023/09/30 08:02:36;;;;;;;14.60;7.72;;;;;;;;;;4950260;28;92882;-80
2023/09/30 08:05:03;;;;;;;15.60;8.13;;;;;;;;;;4964861;28;95795;-80
2023/09/30 08:07:30;;;;;;;14.85;6.75;;;;;;;;;;4951387;28;92557;-81
2023/09/30 08:09:56;;;;;;;15.50;7.25;;;;;;;;;;4954996;28;92539;-80
2023/09/30 08:12:23;;;;;;;16.13;7.82;;;;;;;;;;4958687;28;92579;-81
2023/09/30 08:14:51;;;;;;;13.70;6.45;;;;;;;;;;4957652;28;92761;-81
2023/09/30 08:17:18;;;;;;;14.68;6.60;;;;;;;;;;4970211;28;92894;-83
2023/09/30 08:19:44;;;;;;;16.48;6.85;;;;;;;;;;4964902;28;102053;-83
2023/09/30 08:22:11;;;;;;;15.50;7.28;;;;;;;;;;4964562;28;101260;-82
2023/09/30 08:24:37;;;;;;;15.18;6.68;;;;;;;;;;4961495;28;92421;-82
2023/09/30 08:27:05;;;;;;;14.38;6.85;;;;;;;;;;4964967;28;98474;-82
2023/09/30 08:29:37;;;;;;;15.02;6.82;;;;;;;;;;4964345;28;92429;-82
2023/09/30 08:32:04;;;;;;;14.05;6.22;;;;;;;;;;4964066;28;94669;-80
2023/09/30 08:34:30;;;;;;;13.40;6.25;;;;;;;;;;4971177;28;92497;-81
2023/09/30 08:36:57;;;;;;;13.75;6.50;;;;;;;;;;4971174;28;93758;-82
2023/09/30 08:39:24;;;;;;;13.00;6.25;;;;;;;;;;4964717;28;94439;-83
2023/09/30 08:41:50;;;;;;;12.98;6.40;;;;;;;;;;4964998;28;92885;-81
2023/09/30 08:44:17;;;;;;;12.77;6.65;;;;;;;;;;4940705;28;96548;-81
2023/09/30 08:46:44;;;;;;;14.75;6.40;;;;;;;;;;4937720;28;92323;-80
2023/09/30 08:49:10;;;;;;;13.40;6.15;;;;;;;;;;4934105;28;94392;-81
2023/09/30 08:51:38;;;;;;;16.58;6.07;;;;;;;;;;4931131;28;93134;-81
2023/09/30 08:54:05;;;;;;;17.35;8.30;;;;;;;;;;4929254;28;93055;-80
2023/09/30 08:56:34;;;;;;;18.40;7.55;;;;;;;;;;4935122;28;93272;-80
2023/09/30 08:59:03;;;;;;;16.08;7.38;;;;;;;;;;4936071;28;93024;-80
2023/09/30 09:01:30;;;;;;;14.93;7.32;;;;;;;;;;4926803;28;92791;-80
2023/09/30 09:03:57;;;;;;;15.40;7.85;;;;;;;;;;4927909;28;93420;-80
2023/09/30 09:06:25;;;;;;;17.98;7.70;;;;;;;;;;4927668;28;93529;-81
2023/09/30 09:08:52;;;;;;;14.75;6.97;;;;;;;;;;4927582;28;94782;-80
2023/09/30 09:11:18;;;;;;;14.18;7.43;;;;;;;;;;4927340;28;93376;-80
2023/09/30 09:13:49;;;;;;;16.23;8.52;;;;;;;;;;4930127;28;92807;-79
2023/09/30 09:16:17;;;;;;;14.38;7.38;;;;;;;;;;4929201;28;92741;-80
2023/09/30 09:18:47;;;;;;;17.48;7.43;;;;;;;;;;4928076;28;93607;-80
2023/09/30 09:21:15;;;;;;;16.20;7.57;;;;;;;;;;4928689;28;93045;-80
2023/09/30 09:23:46;;;;;;;18.10;8.02;;;;;;;;;;4927667;28;92876;-81
2023/09/30 09:26:28;;;;;;;14.60;7.82;;;;;;;;;;4925659;28;92514;-80
2023/09/30 09:29:01;;;;;;;18.00;7.60;;;;;;;;;;4925940;28;93115;-81
2023/09/30 09:31:28;;;;;;;18.83;7.15;;;;;;;;;;4917090;28;93319;-80
2023/09/30 09:33:55;;;;;;;;;;;;;;;;;;4927649;28;94850;-80
2023/09/30 09:36:37;;;;;;;16.02;7.55;;;;;;;;;;4931187;28;94694;-80
2023/09/30 09:39:04;;;;;;;14.68;6.72;;;;;;;;;;4943450;28;95974;-80
2023/09/30 09:41:30;;;;;;;12.98;5.97;;;;;;;;;;4929092;28;92607;-80
2023/09/30 09:43:58;;;;;;;13.32;6.82;;;;;;;;;;4927418;28;93005;-80
2023/09/30 09:46:27;;;;;;;12.63;5.82;;;;;;;;;;4923844;28;92783;-80
2023/09/30 09:48:54;;;;;;;16.08;6.65;;;;;;;;;;4928224;28;93316;-80
2023/09/30 09:51:21;;;;;;;13.07;6.45;;;;;;;;;;4926128;28;92241;-81
2023/09/30 09:53:50;;;;;;;18.52;6.20;;;;;;;;;;4925671;28;92660;-80
2023/09/30 09:56:16;;;;;;;13.27;4.15;;;;;;;;;;4927011;28;92909;-80
2023/09/30 09:58:43;;;;;;;16.95;5.93;;;;;;;;;;4925121;28;96603;-80
2023/09/30 10:01:10;;;;;;;12.18;4.93;;;;;;;;;;4920705;28;92394;-81
2023/09/30 10:03:38;;;;;;;11.88;4.25;;;;;;;;;;4927690;28;93390;-82
2023/09/30 10:06:05;;;;;;;13.85;4.90;;;;;;;;;;4930195;28;93167;-83
2023/09/30 10:08:35;;;;;;;13.05;5.15;;;;;;;;;;4945107;28;93256;-84
2023/09/30 10:11:01;;;;;;;14.18;4.82;;;;;;;;;;4940532;28;93254;-83
2023/09/30 10:13:47;;;;;;;12.32;4.78;;;;;;;;;;4946889;28;93101;-83
2023/09/30 10:16:32;;;;;;;10.13;3.80;;;;;;;;;;4937023;28;97583;-83
2023/09/30 10:18:59;;;;;;;;;;;;;;;;;;4951808;28;93239;-83
2023/09/30 10:21:26;;;;;;;12.25;3.95;;;;;;;;;;4953510;28;92993;-83
2023/09/30 10:24:12;;;;;;;12.98;4.72;;;;;;;;;;4945531;28;94874;-82
2023/09/30 10:26:39;;;;;;;12.75;4.13;;;;;;;;;;4949789;28;94186;-84
2023/09/30 10:29:09;;;;;;;11.50;4.10;;;;;;;;;;4952863;28;92471;-84
2023/09/30 10:31:49;;;;;;;11.05;4.57;;;;;;;;;;4926620;28;93206;-83
2023/09/30 10:34:19;;;;;;;12.68;4.20;;;;;;;;;;4966377;28;93265;-83
2023/09/30 10:36:47;;;;;;;13.75;4.10;;;;;;;;;;4949589;28;93084;-83
2023/09/30 10:39:14;;;;;;;12.63;4.45;;;;;;;;;;4956133;28;93981;-83
2023/09/30 10:41:45;;;;;;;11.05;3.83;;;;;;;;;;4950474;28;91675;-84
2023/09/30 10:44:21;;;;;;;10.00;3.90;;;;;;;;;;4949960;28;96626;-83
2023/09/30 10:46:49;;;;;;;12.02;4.03;;;;;;;;;;4942600;28;92667;-83
2023/09/30 10:49:31;;;;;;;9.73;3.13;;;;;;;;;;4928661;28;95028;-83
2023/09/30 10:52:01;;;;;;;12.77;3.90;;;;;;;;;;4933504;28;94550;-82
2023/09/30 10:54:28;;;;;;;9.55;3.40;;;;;;;;;;4929715;28;92850;-83
2023/09/30 10:56:55;;;;;;;10.15;3.60;;;;;;;;;;4922016;28;93308;-82
2023/09/30 10:59:23;;;;;;;11.05;3.53;;;;;;;;;;4932208;28;93229;-82
2023/09/30 11:01:50;;;;;;;11.10;3.80;;;;;;;;;;4930435;28;100454;-82
2023/09/30 11:04:17;;;;;;;9.88;3.47;;;;;;;;;;4949832;28;93407;-83
2023/09/30 11:06:45;;;;;;;10.10;2.92;;;;;;;;;;4950923;28;92789;-82
2023/09/30 11:09:16;;;;;;;11.80;3.50;;;;;;;;;;4948708;28;92952;-82
2023/09/30 11:11:48;;;;;;;10.27;3.25;;;;;;;;;;4952179;28;92873;-82
2023/09/30 11:14:29;;;;;;;11.40;3.55;;;;;;;;;;4948909;28;94889;-83
2023/09/30 11:16:57;;;;;;;10.70;2.92;;;;;;;;;;4950305;28;95390;-83
2023/09/30 11:19:24;;;;;;;11.15;2.95;;;;;;;;;;4939466;28;93186;-83
2023/09/30 11:21:52;;;;;;;10.05;3.00;;;;;;;;;;4947053;28;93440;-83
2023/09/30 11:24:19;;;;;;;10.55;3.40;;;;;;;;;;4950736;28;92656;-83
2023/09/30 11:26:46;;;;;;;11.75;2.95;;;;;;;;;;4947836;28;96039;-83
2023/09/30 11:29:16;;;;;;;9.65;3.00;;;;;;;;;;4947457;28;92605;-84
2023/09/30 11:31:47;;;;;;;11.02;3.38;;;;;;;;;;4964999;28;93687;-83
2023/09/30 11:34:18;;;;;;;9.15;2.85;;;;;;;;;;4948396;28;99137;-83
2023/09/30 11:36:50;;;;;;;9.38;2.60;;;;;;;;;;4944797;28;92961;-82
2023/09/30 11:39:27;;;;;;;9.48;2.40;;;;;;;;;;4929346;28;95498;-84
2023/09/30 11:41:56;;;;;;;7.85;2.45;;;;;;;;;;4929231;28;92599;-83
2023/09/30 11:44:25;;;;;;;10.60;2.50;;;;;;;;;;4950670;28;92789;-84
2023/09/30 11:47:00;;;;;;;8.95;2.63;;;;;;;;;;4950352;28;92618;-84
2023/09/30 11:49:37;;;;;;;9.63;2.58;;;;;;;;;;4950904;28;93141;-83
2023/09/30 11:52:07;;;;;;;9.70;2.45;;;;;;;;;;4948501;28;92970;-83
2023/09/30 11:54:39;;;;;;;8.73;2.60;;;;;;;;;;4949744;28;92706;-83
2023/09/30 11:57:09;;;;;;;9.13;2.75;;;;;;;;;;4938972;28;91736;-82
2023/09/30 11:59:36;;;;;;;11.00;3.33;;;;;;;;;;4944317;28;93122;-82
2023/09/30 12:02:03;;;;;;;9.02;3.05;;;;;;;;;;4944188;28;93168;-82
2023/09/30 12:04:41;;;;;;;10.13;3.47;;;;;;;;;;4946156;28;95087;-82
2023/09/30 12:07:08;;;;;;;10.82;3.40;;;;;;;;;;4945147;28;93761;-83
2023/09/30 12:09:37;;;;;;;12.18;4.00;;;;;;;;;;4960673;28;92564;-82
2023/09/30 12:12:04;;;;;;;11.95;3.47;;;;;;;;;;4946710;28;92698;-81
2023/09/30 12:14:31;;;;;;;10.93;3.33;;;;;;;;;;4949834;28;93241;-83
2023/09/30 12:16:57;;;;;;;11.43;3.53;;;;;;;;;;4949582;28;92527;-84
2023/09/30 12:19:26;;;;;;;10.27;4.00;;;;;;;;;;4958992;28;93051;-82
2023/09/30 12:21:53;;;;;;;11.88;3.53;;;;;;;;;;4946601;28;92403;-82
2023/09/30 12:24:21;;;;;;;10.43;3.08;;;;;;;;;;4946937;28;92614;-82
2023/09/30 12:26:49;;;;;;;9.88;3.03;;;;;;;;;;4946743;28;94006;-82
2023/09/30 12:29:17;;;;;;;13.80;2.80;;;;;;;;;;4948550;28;95130;-82
2023/09/30 12:31:44;;;;;;;11.10;2.70;;;;;;;;;;4946769;28;95213;-82
2023/09/30 12:34:19;;;;;;;9.27;2.30;;;;;;;;;;4945929;28;98384;-81
2023/09/30 12:36:47;;;;;;;9.85;2.80;;;;;;;;;;4946929;28;93084;-82
2023/09/30 12:39:16;;;;;;;10.85;2.40;;;;;;;;;;4948105;28;92796;-81
2023/09/30 12:41:44;;;;;;;11.85;2.58;;;;;;;;;;4950868;28;94253;-82
2023/09/30 12:44:12;;;;;;;10.68;2.40;;;;;;;;;;4949422;28;97286;-81
2023/09/30 12:46:39;;;;;;;7.32;2.40;;;;;;;;;;4949698;28;91943;-83
2023/09/30 12:49:06;;;;;;;11.80;3.00;;;;;;;;;;4948826;28;92510;-82
2023/09/30 12:51:33;;;;;;;7.55;2.20;;;;;;;;;;4947933;28;93166;-82
2023/09/30 12:54:00;;;;;;;11.45;2.50;;;;;;;;;;4946354;28;95619;-83
2023/09/30 12:56:30;;;;;;;10.38;2.50;;;;;;;;;;4950695;28;93725;-84
2023/09/30 12:58:57;;;;;;;10.40;2.75;;;;;;;;;;4938772;28;92968;-84
2023/09/30 13:01:24;;;;;;;;;;;;;;;;;;4949517;28;93251;-84
2023/09/30 13:03:51;;;;;;;10.40;2.25;;;;;;;;;;4954996;28;92498;-83
2023/09/30 13:06:18;;;;;;;;;;;;;;;;;;4953591;28;92536;-83
2023/09/30 13:08:45;;;;;;;9.65;2.25;;;;;;;;;;4950553;28;112874;-84
2023/09/30 13:11:13;;;;;;;9.60;2.40;;;;;;;;;;4946570;28;92657;-84
2023/09/30 13:13:39;;;;;;;10.15;2.53;;;;;;;;;;4945452;28;94482;-84
2023/09/30 13:16:10;;;;;;;8.85;2.50;;;;;;;;;;4944886;28;92515;-84
2023/09/30 13:18:36;;;;;;;8.68;2.33;;;;;;;;;;4930622;28;94802;-86
2023/09/30 13:21:05;;;;;;;11.18;3.13;;;;;;;;;;4940499;28;92499;-84
2023/09/30 13:23:33;;;;;;;9.23;2.60;;;;;;;;;;4953240;28;92501;-85
2023/09/30 13:26:00;;;;;;;12.30;2.67;;;;;;;;;;4951194;28;96015;-84
2023/09/30 13:28:30;;;;;;;8.98;2.35;;;;;;;;;;4965488;28;92711;-85
2023/09/30 13:30:57;;;;;;;11.52;2.75;;;;;;;;;;4950115;28;92819;-84
2023/09/30 13:33:24;;;;;;;8.02;2.10;;;;;;;;;;4949983;28;93128;-83
2023/09/30 13:35:55;;;;;;;7.53;2.00;;;;;;;;;;4947890;28;92048;-84
2023/09/30 13:38:22;;;;;;;7.53;2.20;;;;;;;;;;4977598;28;94572;-84
2023/09/30 13:40:49;;;;;;;7.93;2.22;;;;;;;;;;4949820;28;94078;-83
2023/09/30 13:43:15;;;;;;;6.32;1.98;;;;;;;;;;4950803;28;95223;-84
2023/09/30 13:45:42;;;;;;;8.80;2.15;;;;;;;;;;4949656;28;95142;-84
2023/09/30 13:48:08;;;;;;;7.85;2.22;;;;;;;;;;4945392;28;92962;-84
2023/09/30 13:50:35;;;;;;;6.68;2.17;;;;;;;;;;4950164;28;93383;-84
2023/09/30 13:53:02;;;;;;;7.72;1.92;;;;;;;;;;4952594;28;94758;-83
2023/09/30 13:55:29;;;;;;;7.07;2.00;;;;;;;;;;4952861;28;92632;-85
2023/09/30 13:57:56;;;;;;;6.53;1.77;;;;;;;;;;4952668;28;92927;-84
2023/09/30 14:00:23;;;;;;;6.93;1.92;;;;;;;;;;4951541;28;92338;-83
2023/09/30 14:02:51;;;;;;;7.22;1.92;;;;;;;;;;4965812;28;93059;-84
2023/09/30 14:05:18;;;;;;;6.65;2.08;;;;;;;;;;4952220;28;92749;-84
2023/09/30 14:07:45;;;;;;;6.40;2.08;;;;;;;;;;4952163;28;96546;-83
2023/09/30 14:10:11;;;;;;;6.30;2.00;;;;;;;;;;4944349;28;93989;-84
2023/09/30 14:12:39;;;;;;;6.03;2.20;;;;;;;;;;4962522;28;93556;-83
2023/09/30 14:15:06;;;;;;;6.88;2.15;;;;;;;;;;4951249;28;93103;-83
2023/09/30 14:17:34;;;;;;;6.75;2.00;;;;;;;;;;4951645;28;93492;-83
2023/09/30 14:20:05;;;;;;;5.53;1.95;;;;;;;;;;4950685;28;93090;-83
2023/09/30 14:22:31;;;;;;;6.25;1.90;;;;;;;;;;4952164;28;92380;-83
2023/09/30 14:24:58;;;;;;;6.13;2.10;;;;;;;;;;4952843;28;94260;-83
2023/09/30 14:27:26;;;;;;;5.95;1.88;;;;;;;;;;4951918;28;93273;-84
2023/09/30 14:29:52;;;;;;;5.32;2.05;;;;;;;;;;4948990;28;92463;-83
2023/09/30 14:32:19;;;;;;;5.78;2.08;;;;;;;;;;4950226;28;95167;-83
2023/09/30 14:34:46;;;;;;;5.85;1.85;;;;;;;;;;4952769;28;92436;-84
2023/09/30 14:37:13;;;;;;;7.10;2.10;;;;;;;;;;4939250;28;92509;-84
2023/09/30 14:39:40;;;;;;;6.00;1.98;;;;;;;;;;4933381;28;93614;-84